Time;durP1;ratioP1;P1;durP2;ratioP2;P2;SDS_P1;SDS_P2;PMS_P1;PMS_P2;Temp;Humidity;BMP_temperature;BMP_pressure;BME280_temperature;BME280_humidity;BME280_pressure;Samples;Min_cycle;Max_cycle;Signal;HPM_P1;HPM_P2
2023/05/28 00:00:33;;;;;;;0.30;0.30;;;10.20;99.90;;;;;;5070634;28;20079;-73
2023/05/28 00:02:59;;;;;;;0.43;0.43;;;10.30;99.90;;;;;;5070167;28;20051;-73
2023/05/28 00:05:25;;;;;;;0.50;0.50;;;10.20;99.90;;;;;;5070497;28;20132;-73
2023/05/28 00:07:51;;;;;;;0.30;0.30;;;10.20;99.90;;;;;;5069851;28;20075;-74
2023/05/28 00:10:16;;;;;;;0.20;0.20;;;10.20;99.90;;;;;;5107727;28;20083;-74
2023/05/28 00:12:42;;;;;;;0.50;0.50;;;10.20;99.90;;;;;;5090932;28;20047;-74
2023/05/28 00:15:08;;;;;;;2.20;1.55;;;10.20;99.90;;;;;;5042068;28;20121;-73
2023/05/28 00:17:34;;;;;;;0.30;0.30;;;10.20;99.90;;;;;;5070533;28;20127;-74
2023/05/28 00:20:00;;;;;;;0.30;0.30;;;10.20;99.90;;;;;;5053247;28;20128;-73
2023/05/28 00:22:26;;;;;;;0.40;0.40;;;10.20;99.90;;;;;;5036925;28;20049;-73
2023/05/28 00:24:51;;;;;;;0.38;0.38;;;10.20;99.90;;;;;;5070968;28;20090;-73
2023/05/28 00:27:17;;;;;;;0.45;0.45;;;10.20;99.90;;;;;;5054231;28;20042;-73
2023/05/28 00:29:43;;;;;;;0.40;0.40;;;10.50;99.90;;;;;;5071002;28;20052;-73
2023/05/28 00:32:09;;;;;;;0.45;0.45;;;10.30;99.90;;;;;;5070689;28;20090;-73
2023/05/28 00:34:35;;;;;;;0.40;0.40;;;10.30;99.90;;;;;;5054186;28;20033;-73
2023/05/28 00:37:01;;;;;;;0.32;0.32;;;10.40;99.90;;;;;;5049482;28;20037;-73
2023/05/28 00:39:26;;;;;;;0.70;0.70;;;10.40;99.90;;;;;;5034757;28;20057;-73
2023/05/28 00:42:10;;;;;;;0.30;0.30;;;10.40;99.90;;;;;;5035172;28;20067;-74
2023/05/28 00:44:37;;;;;;;0.30;0.30;;;10.40;99.90;;;;;;5098317;28;20075;-73
2023/05/28 00:47:04;;;;;;;0.30;0.30;;;10.50;99.90;;;;;;5069843;28;20079;-73
2023/05/28 00:49:30;;;;;;;;;;;10.50;99.90;;;;;;5070575;28;20128;-73
2023/05/28 00:51:56;;;;;;;0.40;0.40;;;10.50;99.90;;;;;;5053129;28;20015;-73
2023/05/28 00:54:24;;;;;;;0.35;0.32;;;10.50;99.90;;;;;;5053031;28;20040;-72
2023/05/28 00:56:52;;;;;;;0.30;0.30;;;10.50;99.90;;;;;;5070151;28;20102;-73
2023/05/28 00:59:18;;;;;;;0.28;0.28;;;10.40;99.90;;;;;;5069672;28;20072;-73
2023/05/28 01:01:44;;;;;;;0.32;0.32;;;10.40;99.90;;;;;;5070036;28;20148;-73
2023/05/28 01:04:10;;;;;;;0.30;0.30;;;10.40;99.90;;;;;;5085978;28;20119;-73
2023/05/28 01:06:39;;;;;;;0.40;0.40;;;10.40;99.90;;;;;;5089793;28;20570;-73
2023/05/28 01:09:08;;;;;;;0.30;0.30;;;10.30;99.90;;;;;;5106729;28;20054;-73
2023/05/28 01:11:36;;;;;;;0.40;0.40;;;10.30;99.90;;;;;;5089891;28;20035;-73
2023/05/28 01:14:03;;;;;;;0.47;0.47;;;10.20;99.90;;;;;;5050364;28;20094;-73
2023/05/28 01:16:29;;;;;;;0.60;0.40;;;10.20;99.90;;;;;;5069155;28;20066;-73
2023/05/28 01:18:55;;;;;;;0.30;0.30;;;10.20;99.90;;;;;;5052565;28;20045;-73
2023/05/28 01:21:24;;;;;;;0.40;0.40;;;10.20;99.90;;;;;;5068603;28;20041;-73
2023/05/28 01:23:51;;;;;;;0.30;0.30;;;10.10;99.90;;;;;;5069182;28;20041;-73
2023/05/28 01:26:17;;;;;;;0.40;0.40;;;10.10;99.90;;;;;;5035443;28;20055;-73
2023/05/28 01:28:48;;;;;;;0.40;0.40;;;10.20;99.90;;;;;;5068916;28;20048;-73
2023/05/28 01:31:15;;;;;;;0.32;0.32;;;10.10;99.90;;;;;;5051885;28;20052;-73
2023/05/28 01:33:42;;;;;;;0.40;0.40;;;10.10;99.90;;;;;;5068503;28;20041;-74
2023/05/28 01:36:31;;;;;;;1.00;0.57;;;10.20;99.90;;;;;;5068662;28;20163;-73
2023/05/28 01:39:02;;;;;;;0.30;0.30;;;10.20;99.90;;;;;;5069128;28;20040;-73
2023/05/28 01:41:29;;;;;;;0.47;0.47;;;10.20;99.90;;;;;;5052608;28;20049;-73
2023/05/28 01:43:55;;;;;;;0.40;0.40;;;10.30;99.90;;;;;;5067086;28;20036;-73
2023/05/28 01:46:22;;;;;;;0.32;0.32;;;10.20;99.90;;;;;;5051955;28;20344;-73
2023/05/28 01:48:49;;;;;;;0.40;0.40;;;10.20;99.90;;;;;;5068564;28;20045;-73
2023/05/28 01:51:21;;;;;;;;;;;10.20;99.90;;;;;;5055808;28;20040;-73
2023/05/28 01:53:47;;;;;;;0.40;0.40;;;10.20;99.90;;;;;;5079639;28;19924;-73
2023/05/28 01:56:12;;;;;;;0.30;0.30;;;10.20;99.90;;;;;;5068429;28;20065;-73
2023/05/28 01:58:38;;;;;;;0.30;0.30;;;10.20;99.90;;;;;;5069974;28;20040;-73
2023/05/28 02:01:27;;;;;;;0.30;0.30;;;10.20;99.90;;;;;;5105108;28;20092;-73
2023/05/28 02:03:53;;;;;;;0.40;0.40;;;10.10;99.90;;;;;;5088767;28;20051;-73
2023/05/28 02:06:19;;;;;;;0.30;0.30;;;10.10;99.90;;;;;;5071411;28;20184;-73
2023/05/28 02:08:45;;;;;;;0.40;0.40;;;10.10;99.90;;;;;;5089139;28;20052;-73
2023/05/28 02:11:10;;;;;;;0.20;0.20;;;10.10;99.90;;;;;;5105000;28;20442;-73
2023/05/28 02:13:36;;;;;;;0.40;0.40;;;10.10;99.90;;;;;;5085973;28;20127;-73
2023/05/28 02:16:02;;;;;;;0.40;0.40;;;10.20;99.90;;;;;;5068622;28;20144;-73
2023/05/28 02:18:27;;;;;;;0.40;0.40;;;10.10;99.90;;;;;;5067659;28;20051;-73
2023/05/28 02:20:53;;;;;;;0.45;0.45;;;10.10;99.90;;;;;;5068025;28;20078;-73
2023/05/28 02:23:20;;;;;;;0.40;0.40;;;10.00;99.90;;;;;;5068011;28;20052;-72
2023/05/28 02:25:46;;;;;;;0.90;0.90;;;9.90;99.90;;;;;;5067989;28;20079;-73
2023/05/28 02:28:11;;;;;;;0.30;0.30;;;9.90;99.90;;;;;;5034975;28;20076;-73
2023/05/28 02:30:37;;;;;;;1.27;0.65;;;9.70;99.90;;;;;;5068381;28;20518;-73
2023/05/28 02:33:03;;;;;;;0.30;0.30;;;9.70;99.90;;;;;;5067965;28;20036;-73
2023/05/28 02:35:28;;;;;;;0.25;0.25;;;9.70;99.90;;;;;;5051127;28;20085;-73
2023/05/28 02:37:54;;;;;;;0.20;0.20;;;9.70;99.90;;;;;;5034973;28;20136;-73
2023/05/28 02:40:20;;;;;;;0.32;0.32;;;9.90;99.90;;;;;;5050797;28;20052;-73
2023/05/28 02:42:45;;;;;;;0.40;0.40;;;9.90;99.90;;;;;;5075838;28;20052;-73
2023/05/28 02:45:11;;;;;;;0.38;0.38;;;9.80;99.90;;;;;;5073461;28;20052;-73
2023/05/28 02:47:37;;;;;;;0.25;0.25;;;9.90;99.90;;;;;;5051849;28;20045;-72
2023/05/28 02:50:03;;;;;;;0.43;0.43;;;9.90;99.90;;;;;;5067947;28;20534;-73
2023/05/28 02:52:28;;;;;;;0.30;0.30;;;9.90;99.90;;;;;;5064894;28;20058;-73
2023/05/28 02:54:54;;;;;;;0.40;0.40;;;9.90;99.90;;;;;;5053573;28;20048;-73
2023/05/28 02:57:20;;;;;;;0.30;0.30;;;9.90;99.90;;;;;;5088451;28;20043;-73
2023/05/28 02:59:45;;;;;;;0.30;0.30;;;9.90;99.90;;;;;;5105848;28;20051;-73
2023/05/28 03:02:11;;;;;;;0.40;0.40;;;9.80;99.90;;;;;;5105448;28;20047;-73
2023/05/28 03:04:37;;;;;;;0.32;0.32;;;9.80;99.90;;;;;;5054862;28;20040;-73
2023/05/28 03:07:03;;;;;;;0.50;0.50;;;9.70;99.90;;;;;;5104930;28;20048;-73
2023/05/28 03:09:28;;;;;;;;;;;9.70;99.90;;;;;;5071086;28;20555;-73
2023/05/28 03:11:54;;;;;;;0.30;0.30;;;9.70;99.90;;;;;;5087919;28;19920;-73
2023/05/28 03:14:20;;;;;;;0.30;0.30;;;9.70;99.90;;;;;;5045506;28;20097;-73
2023/05/28 03:16:46;;;;;;;0.43;0.43;;;9.70;99.90;;;;;;5067547;28;20093;-73
2023/05/28 03:19:11;;;;;;;0.40;0.40;;;9.70;99.90;;;;;;5050232;28;20136;-73
2023/05/28 03:21:37;;;;;;;0.30;0.30;;;9.70;99.90;;;;;;5066807;28;20047;-73
2023/05/28 03:24:03;;;;;;;0.47;0.47;;;9.60;99.90;;;;;;5067233;28;20053;-73
2023/05/28 03:26:29;;;;;;;0.40;0.40;;;9.60;99.90;;;;;;5049811;28;20049;-73
2023/05/28 03:28:55;;;;;;;;;;;9.60;99.90;;;;;;5068096;28;20371;-73
2023/05/28 03:31:20;;;;;;;0.32;0.32;;;9.50;99.90;;;;;;5070886;28;19920;-73
2023/05/28 03:33:46;;;;;;;0.45;0.45;;;9.50;99.90;;;;;;5071392;28;20087;-73
2023/05/28 03:36:12;;;;;;;0.30;0.30;;;9.50;99.90;;;;;;5054739;28;20098;-73
2023/05/28 03:38:37;;;;;;;0.43;0.43;;;9.50;99.90;;;;;;5054559;28;20036;-73
2023/05/28 03:41:03;;;;;;;0.32;0.32;;;9.40;99.90;;;;;;5071181;28;20075;-73
2023/05/28 03:43:33;;;;;;;0.40;0.40;;;9.40;99.90;;;;;;5085285;28;20063;-74
2023/05/28 03:45:59;;;;;;;0.30;0.30;;;9.40;99.90;;;;;;5071708;28;20121;-73
2023/05/28 03:48:25;;;;;;;0.40;0.40;;;9.40;99.90;;;;;;5057409;28;20048;-73
2023/05/28 03:50:50;;;;;;;0.38;0.38;;;9.50;99.90;;;;;;5054506;28;20044;-74
2023/05/28 03:53:16;;;;;;;0.32;0.32;;;9.50;99.90;;;;;;5085655;28;20063;-74
2023/05/28 03:55:43;;;;;;;0.40;0.40;;;9.60;99.90;;;;;;5071590;28;20059;-73
2023/05/28 03:58:11;;;;;;;0.30;0.30;;;9.50;99.90;;;;;;5071346;28;20049;-73
2023/05/28 04:00:37;;;;;;;0.40;0.40;;;9.50;99.90;;;;;;5053979;28;20137;-74
2023/05/28 04:03:03;;;;;;;0.50;0.50;;;9.60;99.90;;;;;;5054387;28;20044;-74
2023/05/28 04:05:29;;;;;;;0.57;0.57;;;9.60;99.90;;;;;;5054937;28;20055;-73
2023/05/28 04:07:55;;;;;;;0.40;0.40;;;9.60;99.90;;;;;;5054084;28;20056;-74
2023/05/28 04:10:20;;;;;;;0.30;0.30;;;9.70;99.90;;;;;;5071031;28;20044;-74
2023/05/28 04:12:46;;;;;;;0.40;0.40;;;9.70;99.90;;;;;;5054160;28;20040;-73
2023/05/28 04:15:12;;;;;;;0.30;0.30;;;9.70;99.90;;;;;;5071824;28;20072;-74
2023/05/28 04:17:38;;;;;;;0.35;0.35;;;9.70;99.90;;;;;;5053989;28;20044;-73
2023/05/28 04:20:06;;;;;;;0.40;0.40;;;9.80;99.90;;;;;;5053839;28;20064;-74
2023/05/28 04:22:31;;;;;;;0.40;0.40;;;9.80;99.90;;;;;;5069854;28;20145;-74
2023/05/28 04:24:57;;;;;;;0.38;0.38;;;9.80;99.90;;;;;;5053522;28;20103;-73
2023/05/28 04:27:23;;;;;;;0.30;0.30;;;9.90;99.90;;;;;;5070376;28;20052;-73
2023/05/28 04:29:49;;;;;;;0.40;0.40;;;10.00;99.90;;;;;;5070432;28;20052;-74
2023/05/28 04:32:14;;;;;;;0.40;0.40;;;10.00;99.90;;;;;;5036452;28;20080;-73
2023/05/28 04:34:43;;;;;;;0.40;0.40;;;10.10;99.90;;;;;;5070230;28;20478;-74
2023/05/28 04:37:08;;;;;;;0.40;0.40;;;10.10;99.90;;;;;;5069982;28;20040;-74
2023/05/28 04:39:34;;;;;;;0.50;0.50;;;10.20;99.90;;;;;;5052714;28;20377;-74
2023/05/28 04:42:03;;;;;;;0.32;0.32;;;10.20;99.90;;;;;;5071619;28;20123;-74
2023/05/28 04:44:30;;;;;;;0.30;0.30;;;10.30;99.90;;;;;;5098628;28;20040;-74
2023/05/28 04:46:58;;;;;;;0.40;0.40;;;10.40;99.90;;;;;;5053515;28;20104;-74
2023/05/28 04:49:25;;;;;;;0.30;0.30;;;10.40;99.90;;;;;;5073164;28;20048;-73
2023/05/28 04:51:51;;;;;;;0.40;0.40;;;10.40;99.90;;;;;;5078183;28;20040;-74
2023/05/28 04:54:16;;;;;;;0.30;0.30;;;10.60;99.90;;;;;;5076942;28;20049;-74
2023/05/28 04:56:42;;;;;;;0.35;0.35;;;10.50;99.90;;;;;;5053047;28;20148;-74
2023/05/28 04:59:09;;;;;;;0.30;0.30;;;10.70;99.90;;;;;;5053362;28;20040;-74
2023/05/28 05:01:36;;;;;;;0.50;0.50;;;10.60;99.90;;;;;;5052609;28;20076;-74
2023/05/28 05:04:02;;;;;;;0.30;0.30;;;10.60;99.90;;;;;;5069797;28;20448;-74
2023/05/28 05:06:28;;;;;;;0.40;0.40;;;10.50;99.90;;;;;;5053072;28;20052;-74
2023/05/28 05:08:53;;;;;;;0.50;0.50;;;10.50;99.90;;;;;;5069550;28;20098;-74
2023/05/28 05:11:20;;;;;;;0.40;0.40;;;10.50;99.90;;;;;;5052583;28;20051;-74
2023/05/28 05:13:45;;;;;;;0.20;0.20;;;10.50;99.90;;;;;;5052757;28;20880;-74
2023/05/28 05:16:12;;;;;;;0.38;0.38;;;10.60;99.90;;;;;;5069881;28;20052;-74
2023/05/28 05:18:38;;;;;;;0.40;0.40;;;10.70;99.90;;;;;;5052663;28;20044;-73
2023/05/28 05:21:04;;;;;;;0.30;0.30;;;10.80;99.90;;;;;;5052688;28;20083;-74
2023/05/28 05:23:29;;;;;;;0.40;0.40;;;10.90;99.90;;;;;;5069341;28;20089;-74
2023/05/28 05:25:55;;;;;;;0.40;0.40;;;11.00;99.90;;;;;;5069891;28;20467;-74
2023/05/28 05:28:21;;;;;;;0.40;0.40;;;11.10;99.90;;;;;;5069539;28;20074;-74
2023/05/28 05:30:47;;;;;;;0.30;0.30;;;11.30;99.90;;;;;;5069944;28;20093;-74
2023/05/28 05:33:12;;;;;;;0.40;0.40;;;11.40;99.90;;;;;;5069396;28;20045;-74
2023/05/28 05:35:38;;;;;;;0.20;0.20;;;11.50;99.90;;;;;;5052510;28;20245;-74
2023/05/28 05:38:05;;;;;;;0.35;0.35;;;11.70;99.90;;;;;;5052500;28;20466;-74
2023/05/28 05:40:31;;;;;;;0.30;0.30;;;11.80;99.90;;;;;;5068434;28;20048;-74
2023/05/28 05:42:57;;;;;;;0.30;0.30;;;12.00;99.90;;;;;;5079279;28;20088;-74
2023/05/28 05:45:22;;;;;;;0.63;0.63;;;12.10;99.90;;;;;;5089600;28;20044;-74
2023/05/28 05:47:51;;;;;;;0.38;0.38;;;12.20;99.90;;;;;;5068895;28;20123;-74
2023/05/28 05:50:17;;;;;;;0.30;0.30;;;12.30;99.90;;;;;;5052185;28;20137;-74
2023/05/28 05:52:42;;;;;;;;;;;12.40;99.90;;;;;;5066839;28;20067;-74
2023/05/28 05:55:08;;;;;;;0.30;0.30;;;12.50;99.90;;;;;;5052064;28;20027;-74
2023/05/28 05:57:36;;;;;;;0.40;0.40;;;12.60;99.90;;;;;;5068703;28;20032;-75
2023/05/28 06:00:05;;;;;;;0.30;0.30;;;12.60;99.90;;;;;;5068553;28;20043;-74
2023/05/28 06:02:30;;;;;;;0.40;0.40;;;12.70;99.90;;;;;;5068010;28;20052;-74
2023/05/28 06:04:56;;;;;;;0.73;0.68;;;12.80;99.90;;;;;;5068472;28;20053;-74
2023/05/28 06:07:22;;;;;;;0.32;0.32;;;12.90;99.90;;;;;;5068435;28;20044;-74
2023/05/28 06:09:48;;;;;;;1.42;0.52;;;12.90;99.90;;;;;;5068411;28;20044;-74
2023/05/28 06:12:13;;;;;;;;;;;13.00;99.90;;;;;;5068691;28;20045;-74
2023/05/28 06:14:39;;;;;;;0.40;0.40;;;13.10;99.90;;;;;;5066122;28;19934;-74
2023/05/28 06:17:05;;;;;;;;;;;13.10;99.90;;;;;;5052860;28;20374;-74
2023/05/28 06:19:31;;;;;;;0.55;0.55;;;13.20;99.90;;;;;;5051512;28;20294;-74
2023/05/28 06:21:57;;;;;;;0.73;0.40;;;13.30;99.90;;;;;;5068139;28;20041;-74
2023/05/28 06:24:22;;;;;;;0.57;0.57;;;13.30;99.90;;;;;;5035934;28;20508;-73
2023/05/28 06:26:48;;;;;;;0.20;0.20;;;13.40;99.90;;;;;;5047982;28;20067;-74
2023/05/28 06:29:14;;;;;;;0.40;0.40;;;13.40;99.90;;;;;;5031499;28;20478;-74
2023/05/28 06:31:40;;;;;;;0.35;0.35;;;13.40;99.90;;;;;;5048251;28;20037;-74
2023/05/28 06:34:05;;;;;;;0.30;0.30;;;13.50;99.90;;;;;;5040302;28;20091;-74
2023/05/28 06:36:32;;;;;;;0.30;0.30;;;13.60;99.90;;;;;;5068040;28;20045;-74
2023/05/28 06:38:57;;;;;;;1.27;0.55;;;13.60;99.90;;;;;;5051626;28;20041;-74
2023/05/28 06:41:23;;;;;;;0.20;0.20;;;13.70;99.90;;;;;;5082469;28;20062;-74
2023/05/28 06:43:49;;;;;;;0.98;0.57;;;13.90;99.90;;;;;;5054980;28;20052;-74
2023/05/28 06:46:15;;;;;;;0.50;0.50;;;14.00;99.90;;;;;;5068697;28;20045;-74
2023/05/28 06:48:41;;;;;;;0.30;0.30;;;14.10;99.90;;;;;;5068397;28;20087;-74
2023/05/28 06:51:07;;;;;;;0.80;0.80;;;14.20;99.90;;;;;;5053653;28;20612;-73
2023/05/28 06:53:32;;;;;;;0.30;0.30;;;14.30;99.90;;;;;;5080846;28;20427;-75
2023/05/28 06:55:58;;;;;;;;;;;14.40;99.90;;;;;;5068702;28;20097;-74
2023/05/28 06:58:24;;;;;;;0.20;0.20;;;14.50;99.90;;;;;;5052042;28;19921;-74
2023/05/28 07:00:49;;;;;;;0.43;0.43;;;14.50;99.90;;;;;;5051367;28;20470;-74
2023/05/28 07:03:15;;;;;;;0.55;0.47;;;14.50;99.90;;;;;;5069243;28;20058;-74
2023/05/28 07:05:41;;;;;;;;;;;14.50;99.90;;;;;;5072083;28;20169;-74
2023/05/28 07:08:07;;;;;;;0.20;0.20;;;14.60;99.90;;;;;;5072466;28;20003;-74
2023/05/28 07:10:33;;;;;;;0.40;0.40;;;14.60;99.90;;;;;;5071971;28;20134;-74
2023/05/28 07:12:58;;;;;;;;;;;14.70;99.90;;;;;;5056166;28;20048;-74
2023/05/28 07:15:24;;;;;;;1.45;0.68;;;14.70;99.90;;;;;;5055294;28;19920;-74
2023/05/28 07:17:50;;;;;;;0.40;0.40;;;14.70;99.90;;;;;;5071466;28;20127;-74
2023/05/28 07:20:16;;;;;;;;;;;14.80;99.90;;;;;;5055488;28;20044;-74
2023/05/28 07:22:41;;;;;;;0.60;0.60;;;14.90;99.90;;;;;;5055205;28;20372;-73
2023/05/28 07:25:08;;;;;;;;;;;14.90;99.90;;;;;;5055923;28;20040;-74
2023/05/28 07:27:33;;;;;;;0.30;0.30;;;15.00;99.90;;;;;;5072098;28;19920;-74
2023/05/28 07:29:59;;;;;;;0.50;0.50;;;15.10;99.90;;;;;;5072298;28;20569;-74
2023/05/28 07:32:25;;;;;;;0.35;0.35;;;15.20;99.90;;;;;;5038807;28;20045;-74
2023/05/28 07:34:51;;;;;;;0.20;0.20;;;15.30;99.90;;;;;;5054652;28;20040;-74
2023/05/28 07:37:16;;;;;;;0.30;0.30;;;15.40;99.90;;;;;;5066072;28;20042;-74
2023/05/28 07:39:42;;;;;;;;;;;15.50;99.90;;;;;;5074892;28;20048;-74
2023/05/28 07:42:08;;;;;;;0.20;0.20;;;15.60;99.90;;;;;;5089425;28;19924;-74
2023/05/28 07:44:33;;;;;;;;;;;15.70;99.90;;;;;;5071629;28;20517;-74
2023/05/28 07:46:59;;;;;;;0.98;0.85;;;15.70;99.90;;;;;;5072082;28;19920;-74
2023/05/28 07:49:25;;;;;;;0.40;0.40;;;15.90;99.90;;;;;;5054734;28;20044;-74
2023/05/28 07:51:51;;;;;;;;;;;16.00;99.90;;;;;;5063523;28;20496;-74
2023/05/28 07:54:17;;;;;;;0.43;0.43;;;16.10;99.90;;;;;;5078225;28;19928;-74
2023/05/28 07:56:42;;;;;;;;;;;16.20;99.90;;;;;;5071491;28;20049;-74
2023/05/28 07:59:08;;;;;;;0.30;0.30;;;16.40;99.90;;;;;;5072344;28;19916;-74
2023/05/28 08:01:34;;;;;;;;;;;16.40;99.90;;;;;;5071502;28;20173;-74
2023/05/28 08:04:00;;;;;;;0.20;0.20;;;16.40;99.90;;;;;;5071300;28;20032;-74
2023/05/28 08:06:26;;;;;;;;;;;16.40;99.90;;;;;;5071533;28;20048;-74
2023/05/28 08:08:52;;;;;;;0.30;0.30;;;16.50;99.90;;;;;;5070317;28;20011;-74
2023/05/28 08:11:18;;;;;;;1.13;0.45;;;16.60;99.90;;;;;;5054416;28;20117;-74
2023/05/28 08:13:43;;;;;;;;;;;16.70;99.90;;;;;;5070778;28;20051;-74
2023/05/28 08:16:12;;;;;;;0.30;0.30;;;16.70;99.90;;;;;;5053578;28;19921;-75
2023/05/28 08:18:39;;;;;;;0.40;0.40;;;16.70;99.90;;;;;;5053497;28;20098;-74
2023/05/28 08:21:06;;;;;;;0.30;0.30;;;16.90;99.90;;;;;;5070480;28;20041;-75
2023/05/28 08:23:34;;;;;;;0.30;0.30;;;17.00;99.90;;;;;;5070541;28;20390;-74
2023/05/28 08:26:04;;;;;;;0.28;0.28;;;17.20;99.90;;;;;;5070260;28;20044;-75
2023/05/28 08:28:30;;;;;;;0.80;0.70;;;17.30;99.90;;;;;;5070746;28;20078;-75
2023/05/28 08:30:56;;;;;;;1.55;0.40;;;17.30;99.90;;;;;;5069968;28;20049;-74
2023/05/28 08:33:22;;;;;;;;;;;17.20;99.90;;;;;;5080188;28;20052;-73
2023/05/28 08:35:48;;;;;;;0.55;0.55;;;17.00;99.90;;;;;;5090544;28;19997;-73
2023/05/28 08:38:13;;;;;;;;;;;16.90;99.90;;;;;;5108259;28;20552;-73
2023/05/28 08:40:41;;;;;;;0.30;0.30;;;17.00;99.90;;;;;;5073439;28;20373;-73
2023/05/28 08:43:07;;;;;;;0.70;0.70;;;16.90;99.90;;;;;;5062492;28;20056;-73
2023/05/28 08:45:35;;;;;;;1.13;0.40;;;16.90;99.90;;;;;;5053847;28;20086;-74
2023/05/28 08:48:01;;;;;;;0.20;0.20;;;17.00;99.90;;;;;;5069914;28;20035;-74
2023/05/28 08:50:27;;;;;;;;;;;17.10;99.90;;;;;;5053796;28;20048;-74
2023/05/28 08:52:53;;;;;;;0.20;0.20;;;17.30;99.90;;;;;;5085718;28;19949;-74
2023/05/28 08:55:18;;;;;;;;;;;17.30;99.90;;;;;;5070258;28;20383;-74
2023/05/28 08:57:47;;;;;;;0.10;0.10;;;17.40;99.90;;;;;;5069058;28;20356;-74
2023/05/28 09:00:14;;;;;;;1.88;1.77;;;17.40;99.90;;;;;;5069640;28;20142;-73
2023/05/28 09:02:39;;;;;;;0.50;0.38;;;17.40;99.90;;;;;;5053013;28;20432;-73
2023/05/28 09:05:05;;;;;;;;;;;17.40;99.90;;;;;;5052999;28;20105;-73
2023/05/28 09:07:32;;;;;;;0.10;0.10;;;17.40;99.90;;;;;;5053231;28;19934;-74
2023/05/28 09:09:58;;;;;;;0.30;0.30;;;17.50;99.90;;;;;;5069977;28;20044;-74
2023/05/28 09:12:24;;;;;;;0.45;0.45;;;17.50;99.90;;;;;;5070180;28;20036;-73
2023/05/28 09:14:52;;;;;;;0.20;0.20;;;17.40;99.90;;;;;;5070023;28;20048;-74
2023/05/28 09:17:33;;;;;;;0.20;0.20;;;17.50;99.90;;;;;;5070038;28;20472;-74
2023/05/28 09:20:04;;;;;;;0.30;0.30;;;17.50;99.90;;;;;;5069203;28;20074;-74
2023/05/28 09:22:31;;;;;;;0.75;0.75;;;17.50;99.90;;;;;;5052365;28;20094;-74
2023/05/28 09:24:59;;;;;;;0.30;0.30;;;17.70;99.90;;;;;;5068900;28;20127;-74
2023/05/28 09:27:27;;;;;;;1.17;0.65;;;17.90;99.90;;;;;;5069040;28;20053;-74
2023/05/28 09:29:53;;;;;;;0.65;0.65;;;17.90;99.90;;;;;;5047801;28;20428;-73
2023/05/28 09:32:22;;;;;;;;;;;17.90;99.90;;;;;;5106933;28;20046;-74
2023/05/28 09:34:50;;;;;;;0.57;0.57;;;18.00;99.90;;;;;;5058234;28;19926;-74
2023/05/28 09:37:20;;;;;;;0.25;0.25;;;18.20;99.90;;;;;;5068793;28;20638;-74
2023/05/28 09:39:45;;;;;;;0.57;0.57;;;18.40;99.90;;;;;;5069202;28;20103;-74
2023/05/28 09:42:13;;;;;;;;;;;18.50;99.90;;;;;;5056747;28;20067;-74
2023/05/28 09:44:40;;;;;;;0.20;0.20;;;18.60;99.00;;;;;;5079451;28;20010;-74
2023/05/28 09:47:16;;;;;;;0.13;0.13;;;18.60;97.40;;;;;;5068675;28;20613;-73
2023/05/28 09:49:44;;;;;;;0.68;0.68;;;18.70;97.80;;;;;;5068819;28;20495;-74
2023/05/28 09:52:16;;;;;;;0.52;0.52;;;18.70;97.20;;;;;;5069526;28;20111;-75
2023/05/28 09:54:45;;;;;;;0.93;0.82;;;18.70;97.90;;;;;;5070302;28;20041;-74
2023/05/28 09:57:12;;;;;;;0.40;0.40;;;18.70;96.60;;;;;;5069757;28;20143;-74
2023/05/28 09:59:39;;;;;;;0.13;0.13;;;18.70;94.90;;;;;;5063889;28;20041;-75
2023/05/28 10:02:27;;;;;;;0.45;0.40;;;18.70;96.30;;;;;;5032108;28;20076;-73
2023/05/28 10:04:54;;;;;;;0.52;0.50;;;18.80;95.70;;;;;;5048244;28;20084;-74
2023/05/28 10:07:24;;;;;;;0.98;0.60;;;18.80;94.50;;;;;;5048739;28;20045;-74
2023/05/28 10:09:51;;;;;;;0.73;0.73;;;18.80;95.90;;;;;;5048104;28;20041;-74
2023/05/28 10:12:20;;;;;;;2.67;2.13;;;18.70;96.20;;;;;;5048307;28;20048;-74
2023/05/28 10:14:48;;;;;;;0.40;0.40;;;18.70;95.30;;;;;;5060403;28;20078;-74
2023/05/28 10:17:14;;;;;;;0.20;0.20;;;18.80;92.10;;;;;;5052512;28;20505;-75
2023/05/28 10:19:40;;;;;;;;;;;18.90;90.40;;;;;;5069960;28;20033;-74
2023/05/28 10:22:07;;;;;;;0.38;0.38;;;19.00;84.70;;;;;;5068841;28;19924;-74
2023/05/28 10:24:33;;;;;;;0.32;0.32;;;19.10;90.60;;;;;;5051650;28;20048;-74
2023/05/28 10:26:59;;;;;;;1.27;1.05;;;19.00;90.90;;;;;;5086941;28;20079;-74
2023/05/28 10:29:25;;;;;;;;;;;19.00;84.80;;;;;;5089956;28;20490;-74
2023/05/28 10:32:00;;;;;;;2.00;1.13;;;19.10;85.80;;;;;;5089094;28;20366;-74
2023/05/28 10:34:33;;;;;;;0.28;0.28;;;19.10;89.00;;;;;;5060701;28;20375;-74
2023/05/28 10:37:10;;;;;;;0.22;0.22;;;19.50;86.50;;;;;;5068365;28;20482;-75
2023/05/28 10:39:45;;;;;;;0.70;0.70;;;19.60;85.30;;;;;;5074429;28;20402;-75
2023/05/28 10:42:16;;;;;;;0.45;0.45;;;19.50;87.00;;;;;;5078494;28;20047;-75
2023/05/28 10:45:00;;;;;;;0.52;0.52;;;19.60;88.30;;;;;;5085336;28;20047;-75
2023/05/28 10:47:39;;;;;;;0.20;0.20;;;19.60;85.20;;;;;;5075089;28;20544;-75
2023/05/28 10:50:08;;;;;;;0.47;0.47;;;19.60;80.10;;;;;;5054889;28;20390;-74
2023/05/28 10:52:33;;;;;;;0.20;0.20;;;19.70;85.60;;;;;;5052654;28;20072;-75
2023/05/28 10:55:03;;;;;;;0.20;0.20;;;19.70;90.00;;;;;;5074194;28;20078;-75
2023/05/28 10:57:46;;;;;;;1.83;0.60;;;19.50;87.40;;;;;;5057500;28;20355;-74
2023/05/28 11:00:21;;;;;;;0.20;0.20;;;19.40;87.90;;;;;;5054761;28;20126;-75
2023/05/28 11:02:51;;;;;;;0.20;0.20;;;19.40;90.90;;;;;;5055390;28;20084;-74
2023/05/28 11:05:22;;;;;;;0.30;0.20;;;19.60;91.10;;;;;;5055518;28;20394;-74
2023/05/28 11:07:48;;;;;;;0.85;0.73;;;19.60;90.10;;;;;;5055905;28;20343;-75
2023/05/28 11:10:17;;;;;;;1.98;0.75;;;19.60;90.90;;;;;;5022074;28;20044;-74
2023/05/28 11:12:45;;;;;;;0.32;0.32;;;19.60;90.60;;;;;;5054904;28;20036;-74
2023/05/28 11:15:12;;;;;;;0.40;0.40;;;19.70;91.10;;;;;;5036904;28;20429;-74
2023/05/28 11:17:43;;;;;;;0.30;0.30;;;19.90;91.30;;;;;;5074389;28;20036;-75
2023/05/28 11:20:26;;;;;;;0.45;0.45;;;20.00;91.20;;;;;;5074237;28;20083;-74
2023/05/28 11:22:53;;;;;;;0.10;0.10;;;20.10;91.90;;;;;;5073369;28;20082;-74
2023/05/28 11:25:22;;;;;;;0.10;0.10;;;20.00;92.50;;;;;;5088416;28;20072;-75
2023/05/28 11:27:50;;;;;;;0.20;0.20;;;19.90;92.60;;;;;;5074361;28;20071;-75
2023/05/28 11:30:17;;;;;;;0.20;0.20;;;19.80;92.50;;;;;;5058267;28;20387;-75
2023/05/28 11:32:44;;;;;;;0.20;0.20;;;19.70;92.90;;;;;;5074496;28;20486;-74
2023/05/28 11:35:12;;;;;;;0.30;0.30;;;19.70;93.90;;;;;;5074035;28;20047;-75
2023/05/28 11:37:40;;;;;;;0.20;0.20;;;19.80;93.70;;;;;;5058239;28;20098;-75
2023/05/28 11:40:11;;;;;;;0.52;0.35;;;20.00;92.90;;;;;;5057453;28;20126;-74
2023/05/28 11:42:42;;;;;;;0.20;0.20;;;20.20;93.40;;;;;;5082186;28;20380;-75
2023/05/28 11:45:09;;;;;;;0.25;0.25;;;20.20;93.30;;;;;;5081543;28;20362;-75
2023/05/28 11:47:36;;;;;;;0.40;0.38;;;20.20;93.60;;;;;;5075025;28;20044;-75
2023/05/28 11:50:11;;;;;;;1.13;0.43;;;20.40;93.90;;;;;;5071215;28;20477;-75
2023/05/28 11:52:36;;;;;;;0.30;0.30;;;20.40;93.70;;;;;;5070926;28;20055;-75
2023/05/28 11:55:03;;;;;;;0.40;0.40;;;20.10;93.40;;;;;;5037616;28;20037;-75
2023/05/28 11:57:33;;;;;;;0.28;0.28;;;20.00;94.30;;;;;;5054721;28;20045;-75
2023/05/28 12:00:15;;;;;;;0.20;0.20;;;20.00;94.30;;;;;;5070773;28;20044;-75
2023/05/28 12:02:46;;;;;;;0.57;0.35;;;20.00;94.50;;;;;;5055626;28;20048;-74
2023/05/28 12:05:12;;;;;;;3.03;2.08;;;19.80;94.70;;;;;;5053678;28;20056;-75
2023/05/28 12:07:46;;;;;;;2.33;1.55;;;19.90;95.00;;;;;;5070633;28;20049;-75
2023/05/28 12:10:14;;;;;;;0.20;0.20;;;19.80;95.00;;;;;;5070466;28;20048;-74
2023/05/28 12:12:49;;;;;;;0.30;0.30;;;19.90;95.80;;;;;;5070497;28;20080;-75
2023/05/28 12:15:16;;;;;;;0.37;0.37;;;20.00;96.00;;;;;;5070135;28;20158;-75
2023/05/28 12:17:46;;;;;;;0.85;0.85;;;20.10;96.00;;;;;;5074342;28;20814;-75
2023/05/28 12:20:15;;;;;;;1.27;0.50;;;19.90;95.20;;;;;;5091070;28;20043;-75
2023/05/28 12:22:41;;;;;;;0.20;0.20;;;19.80;95.20;;;;;;5090618;28;20044;-75
2023/05/28 12:25:07;;;;;;;0.28;0.28;;;19.80;95.90;;;;;;5068558;28;20052;-75
2023/05/28 12:27:34;;;;;;;0.30;0.30;;;19.80;95.80;;;;;;5053748;28;20052;-75
2023/05/28 12:30:00;;;;;;;1.27;0.77;;;19.80;95.60;;;;;;5037734;28;20045;-75
2023/05/28 12:32:25;;;;;;;1.10;0.47;;;19.80;95.90;;;;;;5069920;28;20059;-75
2023/05/28 12:34:55;;;;;;;1.40;1.30;;;19.80;96.00;;;;;;5053282;28;20040;-75
2023/05/28 12:37:22;;;;;;;0.20;0.20;;;19.90;96.20;;;;;;5070312;28;20442;-75
2023/05/28 12:39:48;;;;;;;1.40;0.52;;;20.00;95.20;;;;;;5070081;28;20047;-75
2023/05/28 12:42:13;;;;;;;0.28;0.28;;;19.80;95.40;;;;;;5073478;28;20040;-74
2023/05/28 12:44:39;;;;;;;;;;;19.70;95.40;;;;;;5047728;28;20037;-75
2023/05/28 12:47:05;;;;;;;0.30;0.30;;;19.80;95.60;;;;;;5070450;28;19952;-75
2023/05/28 12:49:31;;;;;;;0.10;0.10;;;19.70;95.60;;;;;;5069733;28;20048;-75
2023/05/28 12:51:57;;;;;;;0.60;0.60;;;19.60;96.00;;;;;;5069938;28;20409;-75
2023/05/28 12:54:23;;;;;;;0.35;0.35;;;19.70;96.50;;;;;;5070870;28;20045;-75